Aérodrome :
LOGIN :

S'inscrire | Disclaimer

   EN    FR    IT 

 










Légende :    VFR   VFR Marginal   IFR   IFR Intensif   IFR Très Intensif
Visi : 
Plafond : 
>= 8 km
>= 3000ft
5 à 8 km
1000 à 3000 ft
1500m à 5 km
500 à 1000 ft
800 à 1500m
200 à 500 ft
< 800m
< 200 ft
Symboles :   Orages  Brouillard  Fortes neiges  Fortes précipitations  Vent > 20 kt
SIGMETs :   Divers  Orages  Givrage  Turbulence  Onde Orograph.  Cendres Volcan.







- Altitude de l'aérodrome : 645 ft
- Code IATA : DLE
- Voir les cartes d'approche


LFGJ - Dole Tavaux

DERNIER METAR :
  • 201400Z AUTO 05007KT 360V090 CAVOK 17/09 Q1022 NOSIG

METARs EXPIRÉS :
  • 201330Z AUTO 03007KT 350V070 9999 FEW037 18/09 Q1022 NOSIG
  • 201300Z AUTO 03007KT 350V060 9999 SCT036 SCT042 17/10 Q1022 NOSIG
  • 201230Z AUTO 34003KT 280V060 CAVOK 17/10 Q1022 NOSIG
  • 201200Z AUTO 02008KT 9999 SCT032 BKN038 BKN062 16/11 Q1023 NOSIG
  • 201130Z AUTO VRB03KT CAVOK 17/10 Q1023 NOSIG

TAF TAF LFGJ
Valide du 20 à 12h jusqu'au 20 à 21h UTC


201100Z 2012/2021 36006KT 9999 SCT025 BKN035
BECMG 2016/2018 CAVOK
Pas de NOTAMs connus pour ce terrain.



MET'MAP, la Météo Aéronautique d'un coup d'oeil ! - Copyright ORBIFLY Décembre 2007 - Disclaimer

ORBIFLY MET'MAP TEAM :

Programmation & Développement : Alexandra Zaïnal
Conception & Développement : Baudouin d'Aumeries
Co-Programmation & Développement : Marc-Olivier Méhu
Soutien technique & logistique : Manuel Goepfert

Contact : metmap@orbifly.com




SOURCES & CREDITS :

   NOAA